Time,TemperatureF,DewpointF,PressureIn,WindDirection,WindDirectionDegrees,WindSpeedMPH,WindSpeedGustMPH,Humidity,HourlyPrecipIn,Conditions,Clouds,dailyrainin,SoftwareType,DateUTC
2013-01-02 00:00:00,48.5,48.5,29.94,SW,231,0.0,0.0,100,0.01,CLR,,0.00,WeatherDisplay:10.37,2013-01-02 05:00:00,
2013-01-02 00:23:00,48.4,48.4,29.93,SW,231,0.0,0.0,100,0.01,CLR,,0.01,WeatherDisplay:10.37,2013-01-02 05:23:00,
2013-01-02 01:00:00,48.2,48.2,29.92,SW,231,0.0,0.0,100,0.02,,,0.03,WeatherDisplay:10.37,2013-01-02 06:00:00,
2013-01-02 02:00:00,48.0,48.0,29.91,SW,231,0.0,1.0,100,0.04,RA,,0.07,WeatherDisplay:10.37,2013-01-02 07:00:00,
2013-01-02 03:00:00,47.4,47.4,29.92,SW,231,0.0,2.0,100,0.07,RA,,0.14,WeatherDisplay:10.37,2013-01-02 08:00:00,
2013-01-02 04:00:00,46.5,46.5,29.93,ENE,75,0.0,2.0,100,0.06,RA,,0.20,WeatherDisplay:10.37,2013-01-02 09:00:00,
2013-01-02 05:00:00,45.4,45.4,29.95,NE,50,0.0,3.0,100,0.02,RA,,0.22,WeatherDisplay:10.37,2013-01-02 10:00:00,
2013-01-02 06:00:00,44.3,44.3,29.97,NNE,16,0.0,3.0,100,0.02,,,0.24,WeatherDisplay:10.37,2013-01-02 11:00:00,
2013-01-02 07:00:00,44.1,44.1,30.00,ENE,62,0.0,1.0,100,0.02,,,0.26,WeatherDisplay:10.37,2013-01-02 12:00:00,
2013-01-02 08:00:00,43.9,43.9,30.00,ENE,62,0.0,0.0,100,0.01,,,0.27,WeatherDisplay:10.37,2013-01-02 13:00:00,
2013-01-02 09:00:00,44.3,44.3,30.03,NNW,327,0.0,3.0,100,0.00,,,0.27,WeatherDisplay:10.37,2013-01-02 14:00:00,
2013-01-02 10:00:00,44.3,44.3,30.07,North,354,1.0,3.0,100,0.00,,,0.27,WeatherDisplay:10.37,2013-01-02 15:00:00,
2013-01-02 11:00:00,44.0,44.0,30.08,NNE,14,0.0,4.0,100,0.00,,,0.27,WeatherDisplay:10.37,2013-01-02 16:00:00,
2013-01-02 12:00:00,42.6,42.6,30.07,North,350,0.0,5.0,100,0.00,,,0.27,WeatherDisplay:10.37,2013-01-02 17:00:00,
2013-01-02 13:00:00,42.9,42.9,30.05,NE,45,0.0,3.0,100,0.00,,,0.27,WeatherDisplay:10.37,2013-01-02 18:00:00,
2013-01-02 14:00:00,44.6,44.6,30.07,North,5,0.0,3.0,100,0.00,,,0.27,WeatherDisplay:10.37,2013-01-02 19:00:00,
2013-01-02 15:00:00,43.6,43.6,30.07,NNW,335,0.0,3.0,100,0.00,,,0.27,WeatherDisplay:10.37,2013-01-02 20:00:00,
2013-01-02 16:00:00,43.3,43.3,30.10,NNW,330,0.0,3.0,100,0.00,,,0.27,WeatherDisplay:10.37,2013-01-02 21:00:00,
2013-01-02 17:00:00,41.8,41.8,30.10,NNW,330,0.0,0.0,100,0.00,,,0.27,WeatherDisplay:10.37,2013-01-02 22:00:00,
2013-01-02 18:00:00,40.5,40.5,30.12,NNW,330,0.0,0.0,100,0.00,,,0.27,WeatherDisplay:10.37,2013-01-02 23:00:00,
2013-01-02 19:00:00,39.7,39.7,30.14,NNW,330,0.0,0.0,100,0.00,,,0.27,WeatherDisplay:10.37,2013-01-03 00:00:00,
2013-01-02 20:00:00,39.3,39.3,30.15,NNW,330,0.0,0.0,100,0.00,,,0.27,WeatherDisplay:10.37,2013-01-03 01:00:00,
2013-01-02 21:00:00,39.1,39.1,30.16,ENE,60,0.0,2.0,100,0.00,,,0.27,WeatherDisplay:10.37,2013-01-03 02:00:00,
2013-01-02 22:00:00,39.0,39.0,30.17,ENE,60,0.0,0.0,100,0.00,,,0.27,WeatherDisplay:10.37,2013-01-03 03:00:00,
2013-01-02 23:00:00,39.0,39.0,30.17,ENE,60,0.0,0.0,100,0.00,,,0.27,WeatherDisplay:10.37,2013-01-03 04:00:00,